createdAt,value
2023-04-06T00:00:51.509Z,24.03
2023-04-06T00:03:19.534Z,23.47
2023-04-06T00:05:48.429Z,28.37
2023-04-06T00:08:15.788Z,27.53
2023-04-06T00:10:42.972Z,25.67
2023-04-06T00:13:09.911Z,24.97
2023-04-06T00:15:36.869Z,22.37
2023-04-06T00:18:04.398Z,14.93
2023-04-06T00:20:31.878Z,15.50
2023-04-06T00:22:58.816Z,21.97
2023-04-06T00:25:26.907Z,24.33
2023-04-06T00:27:53.668Z,23.10
2023-04-06T00:30:20.763Z,25.27
2023-04-06T00:32:47.701Z,26.07
2023-04-06T00:35:16.019Z,25.80
2023-04-06T00:37:43.049Z,24.43
2023-04-06T00:40:11.568Z,20.07
2023-04-06T00:42:38.329Z,20.93
2023-04-06T00:45:05.748Z,20.17
2023-04-06T00:47:32.652Z,25.07
2023-04-06T00:49:59.712Z,15.10
2023-04-06T00:52:26.671Z,17.30
2023-04-06T00:54:53.847Z,15.50
2023-04-06T00:57:21.007Z,16.20
2023-04-06T00:59:48.123Z,16.40
2023-04-06T01:02:15.065Z,14.60
2023-04-06T01:04:42.992Z,14.80
2023-04-06T01:07:09.758Z,14.10
2023-04-06T01:09:36.713Z,19.33
2023-04-06T01:12:04.342Z,19.90
2023-04-06T01:14:31.105Z,20.83
2023-04-06T01:17:01.477Z,23.93
2023-04-06T01:19:29.494Z,29.13
2023-04-06T01:21:56.358Z,24.37
2023-04-06T01:24:24.529Z,21.63
2023-04-06T01:26:51.466Z,21.10
2023-04-06T01:29:18.501Z,22.73
2023-04-06T01:31:45.667Z,29.67
2023-04-06T01:34:12.875Z,39.70
2023-04-06T01:36:40.005Z,32.50
2023-04-06T01:39:07.259Z,21.23
2023-04-06T01:41:34.287Z,23.73
2023-04-06T01:44:01.538Z,35.97
2023-04-06T01:46:28.584Z,23.53
2023-04-06T01:48:56.119Z,35.80
2023-04-06T01:51:23.121Z,47.67
2023-04-06T01:53:50.467Z,23.23
2023-04-06T01:56:17.477Z,26.03
2023-04-06T01:58:44.349Z,18.83
2023-04-06T02:01:11.213Z,21.57
2023-04-06T02:03:38.125Z,18.93
2023-04-06T02:06:05.405Z,20.80
2023-04-06T02:08:32.373Z,22.07
2023-04-06T02:10:59.286Z,24.43
2023-04-06T02:13:26.141Z,13.03
2023-04-06T02:15:52.925Z,21.63
2023-04-06T02:18:19.947Z,11.93
2023-04-06T02:20:46.967Z,12.93
2023-04-06T02:23:13.848Z,18.83
2023-04-06T02:25:41.265Z,35.23
2023-04-06T02:28:08.229Z,54.33
2023-04-06T02:30:35.673Z,26.20
2023-04-06T02:33:03.569Z,23.00
2023-04-06T02:35:31.755Z,26.37
2023-04-06T02:37:58.826Z,22.30
2023-04-06T02:40:25.643Z,17.20
2023-04-06T02:42:52.509Z,9.00
2023-04-06T02:45:19.378Z,10.97
2023-04-06T02:47:46.334Z,11.50
2023-04-06T02:50:13.351Z,9.60
2023-04-06T02:52:40.262Z,13.80
2023-04-06T02:55:08.711Z,9.87
2023-04-06T02:57:35.784Z,6.63
2023-04-06T03:00:02.918Z,5.87
2023-04-06T03:02:30.032Z,6.07
2023-04-06T03:04:56.900Z,5.53
2023-04-06T03:07:23.730Z,5.97
2023-04-06T03:09:50.756Z,6.23
2023-04-06T03:12:17.679Z,8.40
2023-04-06T03:14:44.642Z,18.80
2023-04-06T03:17:11.855Z,12.63
2023-04-06T03:19:38.694Z,18.67
2023-04-06T03:22:05.658Z,17.20
2023-04-06T03:24:32.370Z,17.67
2023-04-06T03:26:59.209Z,16.90
2023-04-06T03:29:26.392Z,20.47
2023-04-06T03:31:53.207Z,16.93
2023-04-06T03:34:20.111Z,15.63
2023-04-06T03:36:48.388Z,10.63
2023-04-06T03:39:20.927Z,10.33
2023-04-06T03:41:47.667Z,15.00
2023-04-06T03:44:14.871Z,13.47
2023-04-06T03:46:42.730Z,20.43
2023-04-06T03:49:09.685Z,12.93
2023-04-06T03:51:36.733Z,9.20
2023-04-06T03:54:03.577Z,11.50
2023-04-06T03:56:30.388Z,9.27
2023-04-06T03:58:57.231Z,12.50
2023-04-06T04:01:24.118Z,15.87
2023-04-06T04:03:52.091Z,17.13
2023-04-06T04:06:19.135Z,18.20
2023-04-06T04:08:46.193Z,17.57
2023-04-06T04:11:12.951Z,13.97
2023-04-06T04:13:39.872Z,9.97
2023-04-06T04:16:07.048Z,15.43
2023-04-06T04:18:34.170Z,12.97
2023-04-06T04:21:01.329Z,17.23
2023-04-06T04:23:28.145Z,15.43
2023-04-06T04:25:54.988Z,19.43
2023-04-06T04:28:21.850Z,16.93
2023-04-06T04:30:48.619Z,16.73
2023-04-06T04:33:15.463Z,16.93
2023-04-06T04:35:42.398Z,15.50
2023-04-06T04:38:09.221Z,12.53
2023-04-06T04:40:36.064Z,18.33
2023-04-06T04:43:02.883Z,15.30
2023-04-06T04:45:29.809Z,15.57
2023-04-06T04:47:56.985Z,13.70
2023-04-06T04:50:24.058Z,14.50
2023-04-06T04:52:50.916Z,17.93
2023-04-06T04:55:18.633Z,14.80
2023-04-06T04:57:45.469Z,14.13
2023-04-06T05:00:13.137Z,16.47
2023-04-06T05:02:40.488Z,15.03
2023-04-06T05:05:08.168Z,16.87
2023-04-06T05:07:35.360Z,14.67
2023-04-06T05:10:02.292Z,16.33
2023-04-06T05:12:29.734Z,18.97
2023-04-06T05:14:56.647Z,15.60
2023-04-06T05:17:23.750Z,14.87
2023-04-06T05:19:50.725Z,13.47
2023-04-06T05:22:18.796Z,10.53
2023-04-06T05:24:45.827Z,16.20
2023-04-06T05:27:13.786Z,11.97
2023-04-06T05:29:42.095Z,13.87
2023-04-06T05:32:09.030Z,12.97
2023-04-06T05:34:36.252Z,13.47
2023-04-06T05:37:03.231Z,13.53
2023-04-06T05:39:30.076Z,13.20
2023-04-06T05:41:57.555Z,13.70
2023-04-06T05:44:24.716Z,13.93
2023-04-06T05:46:51.634Z,9.53
2023-04-06T05:49:18.599Z,10.97
2023-04-06T05:51:45.492Z,9.53
2023-04-06T05:54:12.302Z,9.23
2023-04-06T05:56:39.180Z,9.73
2023-04-06T05:59:06.915Z,12.90
2023-04-06T06:01:35.852Z,10.47
2023-04-06T06:04:03.717Z,11.90
2023-04-06T06:06:33.488Z,11.03
2023-04-06T06:09:01.739Z,11.77
2023-04-06T06:11:28.978Z,11.03
2023-04-06T06:13:56.043Z,8.20
2023-04-06T06:16:23.300Z,9.17
2023-04-06T06:18:50.328Z,9.37
2023-04-06T06:21:18.098Z,11.23
2023-04-06T06:23:45.463Z,8.83
2023-04-06T06:26:12.357Z,7.27
2023-04-06T06:28:39.201Z,6.63
2023-04-06T06:31:05.998Z,7.13
2023-04-06T06:33:32.901Z,7.57
2023-04-06T06:35:59.817Z,7.83
2023-04-06T06:38:27.215Z,6.60
2023-04-06T06:40:54.323Z,6.30
2023-04-06T06:43:21.391Z,5.27
2023-04-06T06:45:48.434Z,6.43
2023-04-06T06:48:15.557Z,6.23
2023-04-06T06:50:42.842Z,5.30
2023-04-06T06:53:09.817Z,5.60
2023-04-06T06:55:36.692Z,5.20
2023-04-06T06:58:03.627Z,6.67
2023-04-06T07:00:30.721Z,4.90
2023-04-06T07:02:57.796Z,7.57
2023-04-06T07:05:28.737Z,3.97
2023-04-06T07:07:57.065Z,5.33
2023-04-06T07:10:24.318Z,4.20
2023-04-06T07:12:51.340Z,7.20
2023-04-06T07:15:18.561Z,5.90
2023-04-06T07:17:46.552Z,6.33
2023-04-06T07:20:14.590Z,4.63
2023-04-06T07:22:43.932Z,3.67
2023-04-06T07:25:10.898Z,2.70
2023-04-06T07:27:37.916Z,3.37
2023-04-06T07:30:05.302Z,3.50
2023-04-06T07:32:32.424Z,4.23
2023-04-06T07:34:59.439Z,4.10
2023-04-06T07:37:26.239Z,4.20
2023-04-06T07:39:53.055Z,3.10
2023-04-06T07:42:19.942Z,4.23
2023-04-06T07:44:49.858Z,4.00
2023-04-06T07:47:16.626Z,3.27
2023-04-06T07:49:43.554Z,3.83
2023-04-06T07:52:10.899Z,4.70
2023-04-06T07:54:37.866Z,4.17
2023-04-06T07:57:04.756Z,6.13
2023-04-06T07:59:31.595Z,4.07
2023-04-06T08:01:58.408Z,3.67
2023-04-06T08:04:25.571Z,4.03
2023-04-06T08:06:52.492Z,3.50
2023-04-06T08:09:19.282Z,3.33
2023-04-06T08:11:47.160Z,4.37
2023-04-06T08:14:14.154Z,3.73
2023-04-06T08:16:41.284Z,3.33
2023-04-06T08:19:12.075Z,4.30
2023-04-06T08:21:40.988Z,3.53
2023-04-06T08:24:08.041Z,3.17
2023-04-06T08:26:35.318Z,3.80
2023-04-06T08:29:02.911Z,3.90
2023-04-06T08:31:29.864Z,6.77
2023-04-06T08:33:57.144Z,4.97
2023-04-06T08:36:24.182Z,5.77
2023-04-06T08:38:51.341Z,5.37
2023-04-06T08:41:18.955Z,3.23
2023-04-06T08:43:52.229Z,3.73
2023-04-06T08:46:19.534Z,4.93
2023-04-06T08:48:46.997Z,5.70
2023-04-06T08:51:14.380Z,5.80
2023-04-06T08:53:42.306Z,5.27
2023-04-06T08:56:11.665Z,5.40
2023-04-06T08:58:41.871Z,4.27
2023-04-06T09:01:12.487Z,6.00
2023-04-06T09:03:41.386Z,6.03
2023-04-06T09:06:09.967Z,4.97
2023-04-06T09:08:38.897Z,4.03
2023-04-06T09:11:06.627Z,4.10
2023-04-06T09:13:45.550Z,4.40
2023-04-06T09:16:12.380Z,4.27
2023-04-06T09:18:39.173Z,4.57
2023-04-06T09:21:07.086Z,3.70
2023-04-06T09:23:34.376Z,4.10
2023-04-06T09:26:10.664Z,3.67
2023-04-06T09:28:49.743Z,4.27
2023-04-06T09:31:18.395Z,4.03
2023-04-06T09:33:46.824Z,4.30
2023-04-06T09:36:16.590Z,4.60
2023-04-06T09:38:57.609Z,4.23
2023-04-06T09:41:36.622Z,4.80
2023-04-06T09:44:11.353Z,4.30
2023-04-06T09:46:59.120Z,4.93
2023-04-06T09:49:34.351Z,5.50
2023-04-06T09:52:04.510Z,5.27
2023-04-06T09:54:33.195Z,6.13
2023-04-06T09:57:24.087Z,4.17
2023-04-06T10:00:00.402Z,4.27
2023-04-06T10:02:49.166Z,4.80
2023-04-06T10:05:38.504Z,4.83
2023-04-06T10:08:11.255Z,4.53
2023-04-06T10:10:38.927Z,5.10
2023-04-06T10:13:06.919Z,5.73
2023-04-06T10:15:34.683Z,6.30
2023-04-06T10:18:03.420Z,5.73
2023-04-06T10:20:51.103Z,5.03
2023-04-06T10:23:30.557Z,6.03
2023-04-06T10:25:59.899Z,5.67
2023-04-06T10:28:31.230Z,6.90
2023-04-06T10:31:00.124Z,5.80
2023-04-06T10:33:27.754Z,5.37
2023-04-06T10:35:56.217Z,6.87
2023-04-06T10:38:41.456Z,9.67
2023-04-06T10:41:10.911Z,6.50
2023-04-06T10:43:39.927Z,10.57
2023-04-06T10:46:08.201Z,4.87
2023-04-06T10:48:47.685Z,10.23
2023-04-06T10:51:18.495Z,12.50
2023-04-06T10:53:49.973Z,6.57
2023-04-06T10:56:18.909Z,4.80
2023-04-06T10:58:47.726Z,5.43
2023-04-06T11:01:19.220Z,7.37
2023-04-06T11:03:47.837Z,7.27
2023-04-06T11:06:21.878Z,7.80
2023-04-06T11:08:49.073Z,6.30
2023-04-06T11:11:24.370Z,5.93
2023-04-06T11:13:53.851Z,11.30
2023-04-06T11:16:29.241Z,7.27
2023-04-06T11:18:59.176Z,8.00
2023-04-06T11:21:40.676Z,5.50
2023-04-06T11:24:10.748Z,3.97
2023-04-06T11:26:58.200Z,6.93
2023-04-06T11:29:28.393Z,7.53
2023-04-06T11:32:00.348Z,6.00
2023-04-06T11:34:29.474Z,6.67
2023-04-06T11:37:01.509Z,5.67
2023-04-06T11:39:29.502Z,5.57
2023-04-06T11:42:01.837Z,6.17
2023-04-06T11:44:33.875Z,5.27
2023-04-06T11:47:02.227Z,7.23
2023-04-06T11:49:33.779Z,8.77
2023-04-06T11:52:01.927Z,8.47
2023-04-06T11:54:35.783Z,5.50
2023-04-06T11:57:04.026Z,7.80
2023-04-06T11:59:31.135Z,8.13
2023-04-06T12:01:58.591Z,5.80
2023-04-06T12:04:25.824Z,5.77
2023-04-06T12:06:52.943Z,11.10
2023-04-06T12:09:19.716Z,6.93
2023-04-06T12:11:46.856Z,6.43
2023-04-06T12:14:14.414Z,7.47
2023-04-06T12:16:41.710Z,5.33
2023-04-06T12:19:08.857Z,4.63
2023-04-06T12:21:38.234Z,6.13
2023-04-06T12:24:06.359Z,6.00
2023-04-06T12:26:34.124Z,4.93
2023-04-06T12:29:08.322Z,5.60
2023-04-06T12:31:42.055Z,7.63
2023-04-06T12:34:09.075Z,7.27
2023-04-06T12:36:35.943Z,10.03
2023-04-06T12:39:02.912Z,7.73
2023-04-06T12:41:30.737Z,11.03
2023-04-06T12:43:57.893Z,12.47
2023-04-06T12:46:25.207Z,13.00
2023-04-06T12:48:56.113Z,11.30
2023-04-06T12:51:23.470Z,19.63
2023-04-06T12:53:50.332Z,8.87
2023-04-06T12:56:19.242Z,8.07
2023-04-06T12:58:46.711Z,7.10
2023-04-06T13:01:14.557Z,7.40
2023-04-06T13:03:42.399Z,5.37
2023-04-06T13:06:10.416Z,7.17
2023-04-06T13:08:39.611Z,7.13
2023-04-06T13:11:10.155Z,5.97
2023-04-06T13:13:37.985Z,8.77
2023-04-06T13:16:09.532Z,6.93
2023-04-06T13:18:39.718Z,10.20
2023-04-06T13:21:08.762Z,9.23
2023-04-06T13:23:36.320Z,7.80
2023-04-06T13:26:06.157Z,13.50
2023-04-06T13:28:36.036Z,9.07
2023-04-06T13:31:03.694Z,10.37
2023-04-06T13:33:31.798Z,8.60
2023-04-06T13:36:00.026Z,7.80
2023-04-06T13:38:26.936Z,7.93
2023-04-06T13:40:54.254Z,9.03
2023-04-06T13:43:21.704Z,8.60
2023-04-06T13:45:55.238Z,6.47
2023-04-06T13:48:22.732Z,8.70
2023-04-06T13:50:49.796Z,8.37
2023-04-06T13:53:16.920Z,12.70
2023-04-06T13:55:44.140Z,9.40
2023-04-06T13:58:11.292Z,7.03
2023-04-06T14:00:39.244Z,9.03
2023-04-06T14:03:07.325Z,9.70
2023-04-06T14:05:34.746Z,6.67
2023-04-06T14:08:01.742Z,8.20
2023-04-06T14:10:29.134Z,7.37
2023-04-06T14:12:56.787Z,6.83
2023-04-06T14:15:24.931Z,5.77
2023-04-06T14:17:52.481Z,9.20
2023-04-06T14:20:19.939Z,8.57
2023-04-06T14:22:47.613Z,7.33
2023-04-06T14:25:14.769Z,8.07
2023-04-06T14:27:41.931Z,7.17
2023-04-06T14:30:09.735Z,9.83
2023-04-06T14:32:37.633Z,7.60
2023-04-06T14:35:07.356Z,12.03
2023-04-06T14:37:35.010Z,8.23
2023-04-06T14:40:02.386Z,11.77
2023-04-06T14:42:29.480Z,10.37
2023-04-06T14:44:56.314Z,18.77
2023-04-06T14:47:24.090Z,9.27
2023-04-06T14:49:52.920Z,14.47
2023-04-06T14:52:20.036Z,9.67
2023-04-06T14:54:47.073Z,11.80
2023-04-06T14:57:13.885Z,9.73
2023-04-06T14:59:40.820Z,11.00
2023-04-06T15:02:08.047Z,12.57
2023-04-06T15:04:38.421Z,10.80
2023-04-06T15:07:05.821Z,10.20
2023-04-06T15:09:32.706Z,9.53
2023-04-06T15:11:59.571Z,15.57
2023-04-06T15:14:26.411Z,9.20
2023-04-06T15:16:53.294Z,10.50
2023-04-06T15:19:20.302Z,11.07
2023-04-06T15:21:47.343Z,15.97
2023-04-06T15:24:14.295Z,17.07
2023-04-06T15:26:41.322Z,11.90
2023-04-06T15:29:08.661Z,10.10
2023-04-06T15:31:38.282Z,12.83
2023-04-06T15:34:08.754Z,11.30
2023-04-06T15:36:36.270Z,10.17
2023-04-06T15:39:04.955Z,14.37
2023-04-06T15:41:32.319Z,7.37
2023-04-06T15:43:59.350Z,8.23
2023-04-06T15:46:28.289Z,9.57
2023-04-06T15:48:55.880Z,8.70
2023-04-06T15:51:24.095Z,8.50
2023-04-06T15:53:51.247Z,10.53
2023-04-06T15:56:18.130Z,10.17
2023-04-06T15:58:45.651Z,14.20
2023-04-06T16:01:17.035Z,14.53
2023-04-06T16:03:44.750Z,11.83
2023-04-06T16:06:12.264Z,12.00
2023-04-06T16:08:40.573Z,11.10
2023-04-06T16:11:07.927Z,11.17
2023-04-06T16:13:36.060Z,11.30
2023-04-06T16:16:04.403Z,12.63
2023-04-06T16:18:32.533Z,19.77
2023-04-06T16:21:01.288Z,10.43
2023-04-06T16:23:28.687Z,11.30
2023-04-06T16:25:57.787Z,10.47
2023-04-06T16:28:25.776Z,11.90
2023-04-06T16:30:53.315Z,10.97
2023-04-06T16:33:21.084Z,15.53
2023-04-06T16:35:49.110Z,10.80
2023-04-06T16:38:17.220Z,12.23
2023-04-06T16:40:44.208Z,15.23
2023-04-06T16:43:11.214Z,13.13
2023-04-06T16:45:38.705Z,11.07
2023-04-06T16:48:06.394Z,7.27
2023-04-06T16:50:33.638Z,11.57
2023-04-06T16:53:02.276Z,16.10
2023-04-06T16:55:29.204Z,16.70
2023-04-06T16:57:56.307Z,15.63
2023-04-06T17:00:23.515Z,12.57
2023-04-06T17:02:50.682Z,18.03
2023-04-06T17:05:21.916Z,15.57
2023-04-06T17:07:49.050Z,14.27
2023-04-06T17:10:17.656Z,11.17
2023-04-06T17:12:49.651Z,13.27
2023-04-06T17:15:16.624Z,10.10
2023-04-06T17:17:43.418Z,13.83
2023-04-06T17:20:10.425Z,13.20
2023-04-06T17:22:37.420Z,11.93
2023-04-06T17:25:05.478Z,12.73
2023-04-06T17:27:32.616Z,11.23
2023-04-06T17:30:04.798Z,12.07
2023-04-06T17:32:32.684Z,12.63
2023-04-06T17:34:59.698Z,11.33
2023-04-06T17:37:26.765Z,13.80
2023-04-06T17:39:54.213Z,11.30
2023-04-06T17:42:24.513Z,13.30
2023-04-06T17:44:53.188Z,10.93
2023-04-06T17:47:20.737Z,9.43
2023-04-06T17:49:47.728Z,11.53
2023-04-06T17:52:14.777Z,9.93
2023-04-06T17:54:41.593Z,12.00
2023-04-06T17:57:08.657Z,7.47
2023-04-06T17:59:35.721Z,8.57
2023-04-06T18:02:04.390Z,9.57
2023-04-06T18:04:31.560Z,10.20
2023-04-06T18:06:58.411Z,11.03
2023-04-06T18:11:53.579Z,11.37
2023-04-06T18:14:20.404Z,14.60
2023-04-06T18:16:47.249Z,11.33
2023-04-06T18:19:14.578Z,9.50
2023-04-06T18:21:41.958Z,10.30
2023-04-06T18:24:12.323Z,10.27
2023-04-06T18:26:42.159Z,11.30
2023-04-06T18:29:09.067Z,10.63
2023-04-06T18:34:07.932Z,15.30
2023-04-06T18:36:35.005Z,9.50
2023-04-06T18:39:01.809Z,10.50
2023-04-06T18:41:28.887Z,7.93
2023-04-06T18:43:56.224Z,14.23
2023-04-06T18:46:23.351Z,7.87
2023-04-06T18:48:50.445Z,12.93
2023-04-06T18:51:17.495Z,8.40
2023-04-06T18:53:45.538Z,8.77
2023-04-06T18:56:16.519Z,9.27
2023-04-06T18:58:43.609Z,9.37
2023-04-06T19:01:10.593Z,10.50
2023-04-06T19:03:38.969Z,8.53
2023-04-06T19:06:07.630Z,9.97
2023-04-06T19:08:34.741Z,9.33
2023-04-06T19:11:07.333Z,9.00
2023-04-06T19:13:34.662Z,10.40
2023-04-06T19:16:02.148Z,8.00
2023-04-06T19:18:29.142Z,10.57
2023-04-06T19:20:55.842Z,8.97
2023-04-06T19:23:22.801Z,9.37
2023-04-06T19:25:49.620Z,9.47
2023-04-06T19:28:17.393Z,9.03
2023-04-06T19:30:44.223Z,8.63
2023-04-06T19:33:11.007Z,8.67
2023-04-06T19:35:37.742Z,9.77
2023-04-06T19:38:04.521Z,9.27
2023-04-06T19:40:31.316Z,9.17
2023-04-06T19:42:58.054Z,8.73
2023-04-06T19:45:24.782Z,11.20
2023-04-06T19:47:51.656Z,8.23
2023-04-06T19:50:18.739Z,10.07
2023-04-06T19:52:45.539Z,9.87
2023-04-06T19:55:12.245Z,9.83
2023-04-06T19:57:38.998Z,11.40
2023-04-06T20:00:06.606Z,10.70
2023-04-06T20:02:33.365Z,10.00
2023-04-06T20:05:00.449Z,10.57
2023-04-06T20:07:27.208Z,9.93
2023-04-06T20:09:53.994Z,10.17
2023-04-06T20:12:20.720Z,9.50
2023-04-06T20:14:47.498Z,10.87
2023-04-06T20:17:14.276Z,8.90
2023-04-06T20:19:41.003Z,10.77
2023-04-06T20:22:07.724Z,10.87
2023-04-06T20:24:34.609Z,9.50
2023-04-06T20:27:01.486Z,8.60
2023-04-06T20:29:28.318Z,11.30
2023-04-06T20:31:55.289Z,9.17
2023-04-06T20:34:25.930Z,11.03
2023-04-06T20:36:52.736Z,11.77
2023-04-06T20:39:19.615Z,10.03
2023-04-06T20:41:46.903Z,10.57
2023-04-06T20:44:13.874Z,9.83
2023-04-06T20:46:40.964Z,9.27
2023-04-06T20:49:07.786Z,9.43
2023-04-06T20:51:35.487Z,10.50
2023-04-06T20:54:02.634Z,10.43
2023-04-06T20:56:29.886Z,10.57
2023-04-06T20:58:58.383Z,10.30
2023-04-06T21:01:26.212Z,8.27
2023-04-06T21:03:53.357Z,10.07
2023-04-06T21:06:20.965Z,9.60
2023-04-06T21:08:47.922Z,10.03
2023-04-06T21:11:15.938Z,9.60
2023-04-06T21:13:42.814Z,9.83
2023-04-06T21:16:10.327Z,8.77
2023-04-06T21:18:38.177Z,10.53
2023-04-06T21:21:06.348Z,9.77
2023-04-06T21:23:34.290Z,9.77
2023-04-06T21:26:02.076Z,9.57
2023-04-06T21:28:30.145Z,11.10
2023-04-06T21:30:57.037Z,12.13
2023-04-06T21:33:24.262Z,11.27
2023-04-06T21:35:51.269Z,14.00
2023-04-06T21:38:18.053Z,10.83
2023-04-06T21:40:53.595Z,11.70
2023-04-06T21:43:20.350Z,9.60
2023-04-06T21:45:53.628Z,11.50
2023-04-06T21:48:20.580Z,11.43
2023-04-06T21:50:47.340Z,15.80
2023-04-06T21:53:14.194Z,11.60
2023-04-06T21:55:48.364Z,12.60
2023-04-06T21:58:15.901Z,12.73
2023-04-06T22:00:42.765Z,11.80
2023-04-06T22:03:09.973Z,12.33
2023-04-06T22:05:38.371Z,12.87
2023-04-06T22:08:05.863Z,11.77
2023-04-06T22:10:32.944Z,11.60
2023-04-06T22:13:00.014Z,13.43
2023-04-06T22:15:27.302Z,13.27
2023-04-06T22:17:54.214Z,13.73
2023-04-06T22:20:21.106Z,15.23
2023-04-06T22:22:47.942Z,13.87
2023-04-06T22:25:14.741Z,14.70
2023-04-06T22:27:41.612Z,16.73
2023-04-06T22:30:10.389Z,15.73
2023-04-06T22:32:37.480Z,14.20
2023-04-06T22:35:04.394Z,15.60
2023-04-06T22:37:31.448Z,15.17
2023-04-06T22:39:58.267Z,15.57
2023-04-06T22:42:25.113Z,16.00
2023-04-06T22:44:52.859Z,13.63
2023-04-06T22:47:19.720Z,15.27
2023-04-06T22:49:46.619Z,15.47
2023-04-06T22:52:13.451Z,15.63
2023-04-06T22:54:40.927Z,16.37
2023-04-06T22:57:07.997Z,14.43
2023-04-06T22:59:34.840Z,15.87
2023-04-06T23:02:02.208Z,15.73
2023-04-06T23:04:29.236Z,15.97
2023-04-06T23:06:57.231Z,14.40
2023-04-06T23:09:24.188Z,15.23
2023-04-06T23:11:51.328Z,14.83
2023-04-06T23:14:18.657Z,15.60
2023-04-06T23:16:45.672Z,16.80
2023-04-06T23:19:12.826Z,15.70
2023-04-06T23:21:39.863Z,14.43
2023-04-06T23:24:07.235Z,13.33
2023-04-06T23:26:34.126Z,14.93
2023-04-06T23:29:01.192Z,16.70
2023-04-06T23:31:28.148Z,17.50
2023-04-06T23:33:55.012Z,14.57
2023-04-06T23:36:21.801Z,14.70
2023-04-06T23:38:49.083Z,13.87
2023-04-06T23:41:17.015Z,13.93
2023-04-06T23:43:43.930Z,14.63
2023-04-06T23:46:15.729Z,15.17
2023-04-06T23:48:44.265Z,15.10
2023-04-06T23:51:11.595Z,15.30
2023-04-06T23:53:38.618Z,13.77
2023-04-06T23:56:05.775Z,14.30
2023-04-06T23:58:32.892Z,14.07
